Wednesday, October 01, 2014
08:20 UTC
  |  Log In   |  Register Free
Airport Search:

Fairfield County Airport
(KFDW)

Fairfield County Airport Diagram
No Airport Diagram Available

FAA data valid effective September 18, 2014 - November 13, 2014 (unless otherwise noted).

 
 
 
 
 
 
 
 
 
 
 
 
 
 

Current Aviation Weather for Fairfield County Airport (KFDW)

The most recent METAR observation for KFDW was updated at: 0813
METAR Summary (Translated METAR)
KFDW
010755Z AUTO 34003KT 10SM CLR 17/17 A2992 RMK AO1
KCUB
010753Z AUTO 00000KT 8SM CLR 17/16 A2992 RMK AO2 SLP129 T01720156
(21.5 nm SE from KFDW)
KCAE
010756Z 00000KT 10SM FEW003 FEW040 17/15 A2991 RMK AO2 SLP125 T01670150
(22.6 nm SW from KFDW)
TAF Summary (Translated TAF)
KCUB
(21.5 nm SE from KFDW)
010520Z 0106/0206 00000KT P6SM SKC TEMPO 0110/0113 3SM BR SCT004 FM011500 VRB04KT P6SM SCT250
KCAE
(22.6 nm SW from KFDW)
010520Z 0106/0206 00000KT P6SM SKC TEMPO 0110/0114 3SM BR SCT004 FM011500 VRB05KT P6SM SCT250
  Airport Weather Conditions for KFDW

 Current Weather at FDW
63° F
Fair
North winds at 3.5 mph
FDW NOAA Radar

Pressure: 29.92 in
Humidity: 100%
Wind: North at 3.5 MPH (3 KT)
Dew Point: 62.6°F
Visibility: 10.00 mi


Airport Weather Forecast for KFDW

Translated METAR and TAF for KFDW
Translated METAR for KFDW (0814 UTC 01 October 2014)
found at http://aviationweather.gov/adds/metars/
 
METAR text: KFDW 010815Z AUTO 33003KT 10SM CLR 17/17 A2992 RMK AO1
Conditions at: KFDW (WINNSBORO , SC, US) observed 0815 UTC 01 October 2014
Temperature: 17.0°C (63°F)
Dewpoint: 17.0°C (63°F) [RH = 100%]
Pressure (altimeter): 29.92 inches Hg (1013.3 mb)
Winds: from the NNW (330 degrees) at 3 MPH (3 knots; 1.6 m/s)
Visibility: 10 or more miles (16+ km)
Ceiling: at least 12,000 feet AGL
Clouds: sky clear below 12,000 feet AGL
Weather: automated observation with no human augmentation;
there may or may not be significant weather present at this time
Translated TAF for KFDW

There is no translated TAF available for this airport

Find All Airport Services Find A Hotel Find A Rental Car Find A Golf Course Find A Restaurant $100 Hamburger



FBO's on the Field
FBO Company Facility Photos Services Transportation Aviation Fuel Prices: Prices include tax
Catering Weather Repair Courtesy Rental Type 100LL JetA JetA+ MOGAS 8087
 
S & S Aviation Services

This FBO has not yet been rated
FS:Shell
Last Updated: Sep-02
Login to update fuel prices
SS:
Contact S & S Aviation ServicesMore FBO Information
 
Add another FBO Facility Photos Catering Weather Repair Courtesy Rental Type 100LL JetA JetA+ MOGAS 8087
Services Transportation Aviation Fuel Prices: Prices include tax


model-print
model-print
model-print
model-print